sensor_id;sensor_type;location;lat;lon;timestamp;temperature;humidity
360;DHT22;168;48.872;9.226;2023-05-01T00:00:55;11.90;95.00
360;DHT22;168;48.872;9.226;2023-05-01T00:03:22;11.90;95.10
360;DHT22;168;48.872;9.226;2023-05-01T00:05:50;11.90;95.10
360;DHT22;168;48.872;9.226;2023-05-01T00:08:17;11.90;95.10
360;DHT22;168;48.872;9.226;2023-05-01T00:10:44;11.90;95.20
360;DHT22;168;48.872;9.226;2023-05-01T00:13:12;11.90;95.00
360;DHT22;168;48.872;9.226;2023-05-01T00:15:41;11.90;95.10
360;DHT22;168;48.872;9.226;2023-05-01T00:18:09;11.90;95.30
360;DHT22;168;48.872;9.226;2023-05-01T00:20:36;11.80;95.40
360;DHT22;168;48.872;9.226;2023-05-01T00:23:04;11.80;95.30
360;DHT22;168;48.872;9.226;2023-05-01T00:25:34;11.80;95.40
360;DHT22;168;48.872;9.226;2023-05-01T00:28:03;11.70;95.50
360;DHT22;168;48.872;9.226;2023-05-01T00:30:31;11.70;95.60
360;DHT22;168;48.872;9.226;2023-05-01T00:33:01;11.70;95.70
360;DHT22;168;48.872;9.226;2023-05-01T00:35:29;11.70;95.70
360;DHT22;168;48.872;9.226;2023-05-01T00:37:56;11.70;95.80
360;DHT22;168;48.872;9.226;2023-05-01T00:40:24;11.70;95.80
360;DHT22;168;48.872;9.226;2023-05-01T00:42:52;11.60;96.00
360;DHT22;168;48.872;9.226;2023-05-01T00:45:20;11.60;96.10
360;DHT22;168;48.872;9.226;2023-05-01T00:47:47;11.50;96.20
360;DHT22;168;48.872;9.226;2023-05-01T00:50:17;11.50;96.30
360;DHT22;168;48.872;9.226;2023-05-01T00:52:45;11.50;96.30
360;DHT22;168;48.872;9.226;2023-05-01T00:55:12;11.50;96.30
360;DHT22;168;48.872;9.226;2023-05-01T00:57:40;11.50;96.30
360;DHT22;168;48.872;9.226;2023-05-01T01:00:09;11.50;96.30
360;DHT22;168;48.872;9.226;2023-05-01T01:02:37;11.50;96.20
360;DHT22;168;48.872;9.226;2023-05-01T01:05:06;11.50;96.10
360;DHT22;168;48.872;9.226;2023-05-01T01:07:41;11.50;96.20
360;DHT22;168;48.872;9.226;2023-05-01T01:10:18;11.50;96.30
360;DHT22;168;48.872;9.226;2023-05-01T01:12:52;11.60;96.40
360;DHT22;168;48.872;9.226;2023-05-01T01:15:28;11.50;96.40
360;DHT22;168;48.872;9.226;2023-05-01T01:18:00;11.50;96.50
360;DHT22;168;48.872;9.226;2023-05-01T01:20:31;11.40;96.60
360;DHT22;168;48.872;9.226;2023-05-01T01:23:23;11.40;96.70
360;DHT22;168;48.872;9.226;2023-05-01T01:26:08;11.30;96.70
360;DHT22;168;48.872;9.226;2023-05-01T01:28:59;11.30;96.70
360;DHT22;168;48.872;9.226;2023-05-01T01:31:32;11.30;96.80
360;DHT22;168;48.872;9.226;2023-05-01T01:34:08;11.30;96.80
360;DHT22;168;48.872;9.226;2023-05-01T01:36:46;11.40;96.70
360;DHT22;168;48.872;9.226;2023-05-01T01:39:26;11.40;96.50
360;DHT22;168;48.872;9.226;2023-05-01T01:41:57;11.40;96.50
360;DHT22;168;48.872;9.226;2023-05-01T01:44:32;11.30;96.50
360;DHT22;168;48.872;9.226;2023-05-01T01:47:02;11.20;96.60
360;DHT22;168;48.872;9.226;2023-05-01T01:49:37;11.20;96.70
360;DHT22;168;48.872;9.226;2023-05-01T01:52:07;11.10;96.70
360;DHT22;168;48.872;9.226;2023-05-01T01:54:39;11.10;96.80
360;DHT22;168;48.872;9.226;2023-05-01T01:57:10;11.10;96.90
360;DHT22;168;48.872;9.226;2023-05-01T01:59:39;11.10;96.90
360;DHT22;168;48.872;9.226;2023-05-01T02:02:08;11.20;96.90
360;DHT22;168;48.872;9.226;2023-05-01T02:04:38;11.20;96.90
360;DHT22;168;48.872;9.226;2023-05-01T02:07:10;11.20;96.80
360;DHT22;168;48.872;9.226;2023-05-01T02:09:40;11.30;96.80
360;DHT22;168;48.872;9.226;2023-05-01T02:12:09;11.30;96.80
360;DHT22;168;48.872;9.226;2023-05-01T02:14:37;11.30;96.70
360;DHT22;168;48.872;9.226;2023-05-01T02:17:06;11.30;96.70
360;DHT22;168;48.872;9.226;2023-05-01T02:19:37;11.30;96.70
360;DHT22;168;48.872;9.226;2023-05-01T02:22:06;11.40;96.80
360;DHT22;168;48.872;9.226;2023-05-01T02:24:35;11.50;96.50
360;DHT22;168;48.872;9.226;2023-05-01T02:27:06;11.70;96.30
360;DHT22;168;48.872;9.226;2023-05-01T02:29:34;11.60;96.00
360;DHT22;168;48.872;9.226;2023-05-01T02:32:02;11.50;96.20
360;DHT22;168;48.872;9.226;2023-05-01T02:34:33;11.40;96.50
360;DHT22;168;48.872;9.226;2023-05-01T02:37:03;11.30;96.70
360;DHT22;168;48.872;9.226;2023-05-01T02:39:32;11.30;96.70
360;DHT22;168;48.872;9.226;2023-05-01T02:42:00;11.20;96.60
360;DHT22;168;48.872;9.226;2023-05-01T02:44:34;11.20;96.60
360;DHT22;168;48.872;9.226;2023-05-01T02:47:06;11.20;96.70
360;DHT22;168;48.872;9.226;2023-05-01T02:49:35;11.20;96.60
360;DHT22;168;48.872;9.226;2023-05-01T02:52:06;11.10;96.60
360;DHT22;168;48.872;9.226;2023-05-01T02:54:34;11.10;96.70
360;DHT22;168;48.872;9.226;2023-05-01T02:57:03;11.10;96.80
360;DHT22;168;48.872;9.226;2023-05-01T02:59:30;11.10;96.80
360;DHT22;168;48.872;9.226;2023-05-01T03:01:58;11.20;96.70
360;DHT22;168;48.872;9.226;2023-05-01T03:04:25;11.30;96.60
360;DHT22;168;48.872;9.226;2023-05-01T03:06:53;11.20;96.50
360;DHT22;168;48.872;9.226;2023-05-01T03:09:22;11.20;96.70
360;DHT22;168;48.872;9.226;2023-05-01T03:11:50;11.20;96.60
360;DHT22;168;48.872;9.226;2023-05-01T03:14:17;11.30;96.30
360;DHT22;168;48.872;9.226;2023-05-01T03:16:44;11.30;96.60
360;DHT22;168;48.872;9.226;2023-05-01T03:19:12;11.20;96.50
360;DHT22;168;48.872;9.226;2023-05-01T03:21:39;11.20;96.60
360;DHT22;168;48.872;9.226;2023-05-01T03:24:06;11.10;96.60
360;DHT22;168;48.872;9.226;2023-05-01T03:26:36;11.20;96.60
360;DHT22;168;48.872;9.226;2023-05-01T03:29:03;11.20;96.60
360;DHT22;168;48.872;9.226;2023-05-01T03:31:31;11.20;96.50
360;DHT22;168;48.872;9.226;2023-05-01T03:33:59;11.30;96.40
360;DHT22;168;48.872;9.226;2023-05-01T03:36:26;11.30;96.30
360;DHT22;168;48.872;9.226;2023-05-01T03:38:53;11.40;96.10
360;DHT22;168;48.872;9.226;2023-05-01T03:41:21;11.40;95.80
360;DHT22;168;48.872;9.226;2023-05-01T03:43:49;11.50;95.70
360;DHT22;168;48.872;9.226;2023-05-01T03:46:17;11.50;95.40
360;DHT22;168;48.872;9.226;2023-05-01T03:48:44;11.60;95.10
360;DHT22;168;48.872;9.226;2023-05-01T03:51:12;11.60;95.30
360;DHT22;168;48.872;9.226;2023-05-01T03:53:42;11.50;95.30
360;DHT22;168;48.872;9.226;2023-05-01T03:56:09;11.50;95.50
360;DHT22;168;48.872;9.226;2023-05-01T03:58:37;11.50;95.40
360;DHT22;168;48.872;9.226;2023-05-01T04:01:06;11.50;95.50
360;DHT22;168;48.872;9.226;2023-05-01T04:03:33;11.40;95.70
360;DHT22;168;48.872;9.226;2023-05-01T04:06:01;11.40;95.80
360;DHT22;168;48.872;9.226;2023-05-01T04:08:29;11.40;95.70
360;DHT22;168;48.872;9.226;2023-05-01T04:10:56;11.50;95.40
360;DHT22;168;48.872;9.226;2023-05-01T04:13:26;11.50;95.50
360;DHT22;168;48.872;9.226;2023-05-01T04:15:53;11.40;95.90
360;DHT22;168;48.872;9.226;2023-05-01T04:18:24;11.30;96.10
360;DHT22;168;48.872;9.226;2023-05-01T04:20:51;11.30;96.10
360;DHT22;168;48.872;9.226;2023-05-01T04:23:19;11.30;95.90
360;DHT22;168;48.872;9.226;2023-05-01T04:25:46;11.40;95.90
360;DHT22;168;48.872;9.226;2023-05-01T04:28:14;11.40;95.70
360;DHT22;168;48.872;9.226;2023-05-01T04:30:41;11.50;95.70
360;DHT22;168;48.872;9.226;2023-05-01T04:33:09;11.50;95.70
360;DHT22;168;48.872;9.226;2023-05-01T04:35:39;11.60;95.80
360;DHT22;168;48.872;9.226;2023-05-01T04:38:07;11.60;95.70
360;DHT22;168;48.872;9.226;2023-05-01T04:40:35;11.60;95.60
360;DHT22;168;48.872;9.226;2023-05-01T04:43:03;11.60;95.60
360;DHT22;168;48.872;9.226;2023-05-01T04:45:31;11.60;95.50
360;DHT22;168;48.872;9.226;2023-05-01T04:47:58;11.60;95.50
360;DHT22;168;48.872;9.226;2023-05-01T04:50:26;11.60;95.50
360;DHT22;168;48.872;9.226;2023-05-01T04:52:55;11.60;95.40
360;DHT22;168;48.872;9.226;2023-05-01T04:55:22;11.70;95.30
360;DHT22;168;48.872;9.226;2023-05-01T04:57:50;11.80;95.20
360;DHT22;168;48.872;9.226;2023-05-01T05:00:17;11.80;95.00
360;DHT22;168;48.872;9.226;2023-05-01T05:02:45;11.90;95.00
360;DHT22;168;48.872;9.226;2023-05-01T05:05:13;11.90;94.70
360;DHT22;168;48.872;9.226;2023-05-01T05:07:40;11.90;94.60
360;DHT22;168;48.872;9.226;2023-05-01T05:10:09;11.90;94.60
360;DHT22;168;48.872;9.226;2023-05-01T05:12:37;11.80;94.90
360;DHT22;168;48.872;9.226;2023-05-01T05:15:05;11.80;95.10
360;DHT22;168;48.872;9.226;2023-05-01T05:17:32;11.70;95.30
360;DHT22;168;48.872;9.226;2023-05-01T05:20:00;11.80;95.40
360;DHT22;168;48.872;9.226;2023-05-01T05:22:27;11.80;95.30
360;DHT22;168;48.872;9.226;2023-05-01T05:24:55;11.90;95.00
360;DHT22;168;48.872;9.226;2023-05-01T05:27:26;12.00;94.70
360;DHT22;168;48.872;9.226;2023-05-01T05:29:54;12.10;94.10
360;DHT22;168;48.872;9.226;2023-05-01T05:32:21;12.20;93.90
360;DHT22;168;48.872;9.226;2023-05-01T05:34:49;12.20;93.90
360;DHT22;168;48.872;9.226;2023-05-01T05:37:16;12.30;93.80
360;DHT22;168;48.872;9.226;2023-05-01T05:39:44;12.40;93.20
360;DHT22;168;48.872;9.226;2023-05-01T05:42:11;12.50;92.90
360;DHT22;168;48.872;9.226;2023-05-01T05:44:40;12.50;92.80
360;DHT22;168;48.872;9.226;2023-05-01T05:47:07;12.50;92.70
360;DHT22;168;48.872;9.226;2023-05-01T05:49:35;12.60;92.90
360;DHT22;168;48.872;9.226;2023-05-01T05:52:02;12.60;93.30
360;DHT22;168;48.872;9.226;2023-05-01T05:54:30;12.60;93.20
360;DHT22;168;48.872;9.226;2023-05-01T05:56:57;12.60;93.30
360;DHT22;168;48.872;9.226;2023-05-01T05:59:24;12.50;93.00
360;DHT22;168;48.872;9.226;2023-05-01T06:01:53;12.20;93.70
360;DHT22;168;48.872;9.226;2023-05-01T06:04:20;12.00;94.10
360;DHT22;168;48.872;9.226;2023-05-01T06:06:48;11.90;94.70
360;DHT22;168;48.872;9.226;2023-05-01T06:09:16;12.00;94.80
360;DHT22;168;48.872;9.226;2023-05-01T06:11:44;12.10;94.40
360;DHT22;168;48.872;9.226;2023-05-01T06:14:11;12.30;94.60
360;DHT22;168;48.872;9.226;2023-05-01T06:16:38;12.40;94.50
360;DHT22;168;48.872;9.226;2023-05-01T06:19:09;12.50;94.40
360;DHT22;168;48.872;9.226;2023-05-01T06:21:38;12.60;94.20
360;DHT22;168;48.872;9.226;2023-05-01T06:24:06;12.60;94.40
360;DHT22;168;48.872;9.226;2023-05-01T06:26:33;12.70;94.30
360;DHT22;168;48.872;9.226;2023-05-01T06:29:01;12.80;94.10
360;DHT22;168;48.872;9.226;2023-05-01T06:31:30;12.90;93.90
360;DHT22;168;48.872;9.226;2023-05-01T06:34:00;13.00;93.50
360;DHT22;168;48.872;9.226;2023-05-01T06:36:29;13.10;92.80
360;DHT22;168;48.872;9.226;2023-05-01T06:38:56;13.30;92.50
360;DHT22;168;48.872;9.226;2023-05-01T06:41:26;13.40;92.50
360;DHT22;168;48.872;9.226;2023-05-01T06:43:54;13.50;91.70
360;DHT22;168;48.872;9.226;2023-05-01T06:46:21;13.70;90.90
360;DHT22;168;48.872;9.226;2023-05-01T06:48:49;13.70;90.90
360;DHT22;168;48.872;9.226;2023-05-01T06:51:16;13.80;90.80
360;DHT22;168;48.872;9.226;2023-05-01T06:53:46;14.00;90.50
360;DHT22;168;48.872;9.226;2023-05-01T06:56:21;14.10;90.60
360;DHT22;168;48.872;9.226;2023-05-01T06:58:49;14.20;89.60
360;DHT22;168;48.872;9.226;2023-05-01T07:01:19;14.30;89.10
360;DHT22;168;48.872;9.226;2023-05-01T07:03:46;14.40;88.80
360;DHT22;168;48.872;9.226;2023-05-01T07:06:16;14.50;88.60
360;DHT22;168;48.872;9.226;2023-05-01T07:08:50;14.60;87.40
360;DHT22;168;48.872;9.226;2023-05-01T07:11:19;14.60;87.40
360;DHT22;168;48.872;9.226;2023-05-01T07:13:49;14.70;86.70
360;DHT22;168;48.872;9.226;2023-05-01T07:16:19;14.70;86.90
360;DHT22;168;48.872;9.226;2023-05-01T07:18:49;14.70;87.30
360;DHT22;168;48.872;9.226;2023-05-01T07:21:19;14.80;88.00
360;DHT22;168;48.872;9.226;2023-05-01T07:23:53;14.80;88.70
360;DHT22;168;48.872;9.226;2023-05-01T07:26:21;14.90;89.10
360;DHT22;168;48.872;9.226;2023-05-01T07:28:50;15.10;88.90
360;DHT22;168;48.872;9.226;2023-05-01T07:31:18;15.20;88.50
360;DHT22;168;48.872;9.226;2023-05-01T07:33:45;15.30;88.30
360;DHT22;168;48.872;9.226;2023-05-01T07:36:14;15.40;87.40
360;DHT22;168;48.872;9.226;2023-05-01T07:38:43;15.50;87.40
360;DHT22;168;48.872;9.226;2023-05-01T07:41:12;15.60;87.50
360;DHT22;168;48.872;9.226;2023-05-01T07:43:40;15.70;88.00
360;DHT22;168;48.872;9.226;2023-05-01T07:46:07;15.90;87.70
360;DHT22;168;48.872;9.226;2023-05-01T07:48:34;15.90;86.80
360;DHT22;168;48.872;9.226;2023-05-01T07:51:03;16.00;86.80
360;DHT22;168;48.872;9.226;2023-05-01T07:53:30;16.10;86.70
360;DHT22;168;48.872;9.226;2023-05-01T07:56:04;16.20;86.10
360;DHT22;168;48.872;9.226;2023-05-01T07:58:35;16.20;85.10
360;DHT22;168;48.872;9.226;2023-05-01T08:01:04;16.30;84.10
360;DHT22;168;48.872;9.226;2023-05-01T08:03:31;16.40;84.00
360;DHT22;168;48.872;9.226;2023-05-01T08:05:59;16.50;83.40
360;DHT22;168;48.872;9.226;2023-05-01T08:08:26;16.60;82.60
360;DHT22;168;48.872;9.226;2023-05-01T08:10:54;16.70;82.70
360;DHT22;168;48.872;9.226;2023-05-01T08:13:21;16.80;82.00
360;DHT22;168;48.872;9.226;2023-05-01T08:15:50;16.80;80.70
360;DHT22;168;48.872;9.226;2023-05-01T08:18:18;16.90;80.30
360;DHT22;168;48.872;9.226;2023-05-01T08:20:46;17.00;81.20
360;DHT22;168;48.872;9.226;2023-05-01T08:23:14;17.00;80.80
360;DHT22;168;48.872;9.226;2023-05-01T08:25:42;17.10;80.70
360;DHT22;168;48.872;9.226;2023-05-01T08:28:13;17.20;79.80
360;DHT22;168;48.872;9.226;2023-05-01T08:30:40;17.20;80.00
360;DHT22;168;48.872;9.226;2023-05-01T08:33:10;17.30;80.10
360;DHT22;168;48.872;9.226;2023-05-01T08:35:38;17.30;80.20
360;DHT22;168;48.872;9.226;2023-05-01T08:38:06;17.40;80.10
360;DHT22;168;48.872;9.226;2023-05-01T08:40:37;17.40;79.10
360;DHT22;168;48.872;9.226;2023-05-01T08:43:05;17.50;78.90
360;DHT22;168;48.872;9.226;2023-05-01T08:45:34;17.60;78.10
360;DHT22;168;48.872;9.226;2023-05-01T08:48:04;17.70;77.50
360;DHT22;168;48.872;9.226;2023-05-01T08:50:34;17.90;77.60
360;DHT22;168;48.872;9.226;2023-05-01T08:53:03;18.10;77.10
360;DHT22;168;48.872;9.226;2023-05-01T08:55:32;18.40;76.10
360;DHT22;168;48.872;9.226;2023-05-01T08:58:03;18.60;75.20
360;DHT22;168;48.872;9.226;2023-05-01T09:00:32;18.70;75.00
360;DHT22;168;48.872;9.226;2023-05-01T09:03:04;18.90;74.30
360;DHT22;168;48.872;9.226;2023-05-01T09:05:38;18.90;73.30
360;DHT22;168;48.872;9.226;2023-05-01T09:08:07;18.90;74.30
360;DHT22;168;48.872;9.226;2023-05-01T09:10:40;19.00;75.00
360;DHT22;168;48.872;9.226;2023-05-01T09:13:12;19.20;74.50
360;DHT22;168;48.872;9.226;2023-05-01T09:15:40;19.40;73.20
360;DHT22;168;48.872;9.226;2023-05-01T09:18:10;19.50;73.30
360;DHT22;168;48.872;9.226;2023-05-01T09:20:39;19.60;72.10
360;DHT22;168;48.872;9.226;2023-05-01T09:23:08;19.70;72.90
360;DHT22;168;48.872;9.226;2023-05-01T09:25:35;19.90;72.90
360;DHT22;168;48.872;9.226;2023-05-01T09:28:04;20.10;71.10
360;DHT22;168;48.872;9.226;2023-05-01T09:30:33;20.20;69.90
360;DHT22;168;48.872;9.226;2023-05-01T09:33:06;20.40;69.20
360;DHT22;168;48.872;9.226;2023-05-01T09:35:49;20.40;68.80
360;DHT22;168;48.872;9.226;2023-05-01T09:38:17;20.50;69.10
360;DHT22;168;48.872;9.226;2023-05-01T09:40:45;20.60;69.40
360;DHT22;168;48.872;9.226;2023-05-01T09:43:13;20.70;69.70
360;DHT22;168;48.872;9.226;2023-05-01T09:45:42;20.80;68.50
360;DHT22;168;48.872;9.226;2023-05-01T09:48:10;20.90;67.50
360;DHT22;168;48.872;9.226;2023-05-01T09:50:38;20.90;67.40
360;DHT22;168;48.872;9.226;2023-05-01T09:53:08;20.80;67.50
360;DHT22;168;48.872;9.226;2023-05-01T09:55:37;20.70;68.00
360;DHT22;168;48.872;9.226;2023-05-01T09:58:04;20.70;68.40
360;DHT22;168;48.872;9.226;2023-05-01T10:00:47;20.70;68.60
360;DHT22;168;48.872;9.226;2023-05-01T10:03:16;20.90;69.00
360;DHT22;168;48.872;9.226;2023-05-01T10:05:48;21.00;68.70
360;DHT22;168;48.872;9.226;2023-05-01T10:08:18;21.20;68.00
360;DHT22;168;48.872;9.226;2023-05-01T10:10:58;21.30;66.90
360;DHT22;168;48.872;9.226;2023-05-01T10:13:26;21.40;66.50
360;DHT22;168;48.872;9.226;2023-05-01T10:15:55;21.40;66.50
360;DHT22;168;48.872;9.226;2023-05-01T10:18:23;21.40;66.40
360;DHT22;168;48.872;9.226;2023-05-01T10:20:52;21.20;66.60
360;DHT22;168;48.872;9.226;2023-05-01T10:23:21;21.00;67.70
360;DHT22;168;48.872;9.226;2023-05-01T10:25:51;20.90;67.60
360;DHT22;168;48.872;9.226;2023-05-01T10:28:19;21.00;67.80
360;DHT22;168;48.872;9.226;2023-05-01T10:30:48;21.10;67.90
360;DHT22;168;48.872;9.226;2023-05-01T10:33:16;21.20;67.40
360;DHT22;168;48.872;9.226;2023-05-01T10:35:47;21.30;67.50
360;DHT22;168;48.872;9.226;2023-05-01T10:38:32;21.10;67.70
360;DHT22;168;48.872;9.226;2023-05-01T10:41:00;20.90;66.80
360;DHT22;168;48.872;9.226;2023-05-01T10:43:31;20.50;67.70
360;DHT22;168;48.872;9.226;2023-05-01T10:48:52;19.60;70.70
360;DHT22;168;48.872;9.226;2023-05-01T10:51:21;19.40;72.40
360;DHT22;168;48.872;9.226;2023-05-01T10:54:20;19.30;72.80
360;DHT22;168;48.872;9.226;2023-05-01T10:56:48;19.50;73.10
360;DHT22;168;48.872;9.226;2023-05-01T10:59:15;19.80;72.40
360;DHT22;168;48.872;9.226;2023-05-01T11:01:43;20.10;70.20
360;DHT22;168;48.872;9.226;2023-05-01T11:04:47;20.40;69.30
360;DHT22;168;48.872;9.226;2023-05-01T11:07:17;20.50;66.60
360;DHT22;168;48.872;9.226;2023-05-01T11:09:47;20.50;67.20
360;DHT22;168;48.872;9.226;2023-05-01T11:12:49;20.60;65.70
360;DHT22;168;48.872;9.226;2023-05-01T11:15:27;20.10;66.50
360;DHT22;168;48.872;9.226;2023-05-01T11:17:54;19.60;67.90
360;DHT22;168;48.872;9.226;2023-05-01T11:20:49;19.50;67.80
360;DHT22;168;48.872;9.226;2023-05-01T11:23:20;19.70;67.80
360;DHT22;168;48.872;9.226;2023-05-01T11:25:57;19.90;66.30
360;DHT22;168;48.872;9.226;2023-05-01T11:28:29;19.50;68.50
360;DHT22;168;48.872;9.226;2023-05-01T11:30:58;19.00;69.40
360;DHT22;168;48.872;9.226;2023-05-01T11:33:25;18.80;70.20
360;DHT22;168;48.872;9.226;2023-05-01T11:35:57;19.10;70.60
360;DHT22;168;48.872;9.226;2023-05-01T11:38:25;19.30;68.80
360;DHT22;168;48.872;9.226;2023-05-01T11:40:59;19.30;69.00
360;DHT22;168;48.872;9.226;2023-05-01T11:43:27;19.40;68.20
360;DHT22;168;48.872;9.226;2023-05-01T11:45:54;19.60;68.10
360;DHT22;168;48.872;9.226;2023-05-01T11:48:30;19.60;67.20
360;DHT22;168;48.872;9.226;2023-05-01T11:50:57;19.50;67.70
360;DHT22;168;48.872;9.226;2023-05-01T11:53:25;19.40;67.40
360;DHT22;168;48.872;9.226;2023-05-01T11:55:52;19.10;68.10
360;DHT22;168;48.872;9.226;2023-05-01T11:58:32;19.10;69.30
360;DHT22;168;48.872;9.226;2023-05-01T12:01:01;19.30;68.50
360;DHT22;168;48.872;9.226;2023-05-01T12:03:39;19.40;67.50
360;DHT22;168;48.872;9.226;2023-05-01T12:06:08;19.50;68.20
360;DHT22;168;48.872;9.226;2023-05-01T12:08:36;19.70;68.50
360;DHT22;168;48.872;9.226;2023-05-01T12:11:07;19.80;68.10
360;DHT22;168;48.872;9.226;2023-05-01T12:13:38;19.70;68.70
360;DHT22;168;48.872;9.226;2023-05-01T12:16:06;19.80;68.30
360;DHT22;168;48.872;9.226;2023-05-01T12:18:33;19.90;68.20
360;DHT22;168;48.872;9.226;2023-05-01T12:21:01;19.80;67.10
360;DHT22;168;48.872;9.226;2023-05-01T12:23:33;19.60;68.00
360;DHT22;168;48.872;9.226;2023-05-01T12:26:14;19.60;68.80
360;DHT22;168;48.872;9.226;2023-05-01T12:28:57;19.80;69.70
360;DHT22;168;48.872;9.226;2023-05-01T12:31:25;20.20;67.70
360;DHT22;168;48.872;9.226;2023-05-01T12:33:54;20.20;67.10
360;DHT22;168;48.872;9.226;2023-05-01T12:36:22;20.00;67.10
360;DHT22;168;48.872;9.226;2023-05-01T12:38:56;19.80;67.30
360;DHT22;168;48.872;9.226;2023-05-01T12:41:32;19.70;69.00
360;DHT22;168;48.872;9.226;2023-05-01T12:44:02;19.80;70.00
360;DHT22;168;48.872;9.226;2023-05-01T12:46:29;20.10;68.10
360;DHT22;168;48.872;9.226;2023-05-01T12:48:56;20.20;67.50
360;DHT22;168;48.872;9.226;2023-05-01T12:51:24;20.30;67.50
360;DHT22;168;48.872;9.226;2023-05-01T12:53:52;20.30;67.30
360;DHT22;168;48.872;9.226;2023-05-01T12:56:24;20.30;67.10
360;DHT22;168;48.872;9.226;2023-05-01T12:58:52;20.50;67.30
360;DHT22;168;48.872;9.226;2023-05-01T13:01:25;20.70;67.00
360;DHT22;168;48.872;9.226;2023-05-01T13:03:53;20.60;66.60
360;DHT22;168;48.872;9.226;2023-05-01T13:06:30;20.20;67.40
360;DHT22;168;48.872;9.226;2023-05-01T13:09:06;19.70;68.70
360;DHT22;168;48.872;9.226;2023-05-01T13:11:35;19.70;69.70
360;DHT22;168;48.872;9.226;2023-05-01T13:14:07;19.70;69.30
360;DHT22;168;48.872;9.226;2023-05-01T13:16:44;19.70;70.30
360;DHT22;168;48.872;9.226;2023-05-01T13:19:13;19.40;69.80
360;DHT22;168;48.872;9.226;2023-05-01T13:21:50;19.10;71.00
360;DHT22;168;48.872;9.226;2023-05-01T13:24:18;19.00;71.90
360;DHT22;168;48.872;9.226;2023-05-01T13:26:45;19.10;71.80
360;DHT22;168;48.872;9.226;2023-05-01T13:29:14;18.90;72.50
360;DHT22;168;48.872;9.226;2023-05-01T13:31:44;18.70;72.90
360;DHT22;168;48.872;9.226;2023-05-01T13:34:16;18.70;72.60
360;DHT22;168;48.872;9.226;2023-05-01T13:36:47;18.90;73.00
360;DHT22;168;48.872;9.226;2023-05-01T13:39:18;19.00;72.40
360;DHT22;168;48.872;9.226;2023-05-01T13:41:45;18.70;73.20
360;DHT22;168;48.872;9.226;2023-05-01T13:44:14;18.60;73.70
360;DHT22;168;48.872;9.226;2023-05-01T13:46:44;18.70;74.40
360;DHT22;168;48.872;9.226;2023-05-01T13:49:11;18.60;74.30
360;DHT22;168;48.872;9.226;2023-05-01T13:51:41;18.60;74.30
360;DHT22;168;48.872;9.226;2023-05-01T13:54:10;18.70;74.20
360;DHT22;168;48.872;9.226;2023-05-01T13:56:38;18.60;74.00
360;DHT22;168;48.872;9.226;2023-05-01T13:59:07;18.50;74.00
360;DHT22;168;48.872;9.226;2023-05-01T14:01:39;18.50;74.20
360;DHT22;168;48.872;9.226;2023-05-01T14:04:09;18.50;74.70
360;DHT22;168;48.872;9.226;2023-05-01T14:06:41;18.70;74.30
360;DHT22;168;48.872;9.226;2023-05-01T14:09:09;18.90;73.90
360;DHT22;168;48.872;9.226;2023-05-01T14:11:42;19.20;73.30
360;DHT22;168;48.872;9.226;2023-05-01T14:14:12;19.50;72.30
360;DHT22;168;48.872;9.226;2023-05-01T14:16:41;19.40;71.40
360;DHT22;168;48.872;9.226;2023-05-01T14:19:15;19.20;72.20
360;DHT22;168;48.872;9.226;2023-05-01T14:21:43;19.10;72.00
360;DHT22;168;48.872;9.226;2023-05-01T14:24:12;19.10;72.10
360;DHT22;168;48.872;9.226;2023-05-01T14:26:42;19.20;71.50
360;DHT22;168;48.872;9.226;2023-05-01T14:29:20;19.30;72.10
360;DHT22;168;48.872;9.226;2023-05-01T14:31:48;19.50;71.80
360;DHT22;168;48.872;9.226;2023-05-01T14:34:17;19.80;72.20
360;DHT22;168;48.872;9.226;2023-05-01T14:36:45;20.40;69.30
360;DHT22;168;48.872;9.226;2023-05-01T14:39:14;20.90;68.50
360;DHT22;168;48.872;9.226;2023-05-01T14:41:42;21.40;67.30
360;DHT22;168;48.872;9.226;2023-05-01T14:44:13;21.70;65.80
360;DHT22;168;48.872;9.226;2023-05-01T14:46:43;22.00;65.00
360;DHT22;168;48.872;9.226;2023-05-01T14:49:19;22.20;64.10
360;DHT22;168;48.872;9.226;2023-05-01T14:51:47;22.30;64.20
360;DHT22;168;48.872;9.226;2023-05-01T14:54:14;22.30;64.30
360;DHT22;168;48.872;9.226;2023-05-01T14:56:42;22.40;63.40
360;DHT22;168;48.872;9.226;2023-05-01T14:59:10;22.20;62.90
360;DHT22;168;48.872;9.226;2023-05-01T15:01:37;22.00;63.80
360;DHT22;168;48.872;9.226;2023-05-01T15:04:05;21.80;63.80
360;DHT22;168;48.872;9.226;2023-05-01T15:06:34;21.70;63.70
360;DHT22;168;48.872;9.226;2023-05-01T15:09:01;21.40;65.40
360;DHT22;168;48.872;9.226;2023-05-01T15:11:29;21.20;66.50
360;DHT22;168;48.872;9.226;2023-05-01T15:13:57;21.10;66.20
360;DHT22;168;48.872;9.226;2023-05-01T15:16:24;21.00;66.40
360;DHT22;168;48.872;9.226;2023-05-01T15:18:51;20.90;67.20
360;DHT22;168;48.872;9.226;2023-05-01T15:21:19;20.90;66.60
360;DHT22;168;48.872;9.226;2023-05-01T15:23:47;20.80;67.00
360;DHT22;168;48.872;9.226;2023-05-01T15:26:15;20.80;66.80
360;DHT22;168;48.872;9.226;2023-05-01T15:28:42;20.90;66.70
360;DHT22;168;48.872;9.226;2023-05-01T15:31:10;20.80;65.80
360;DHT22;168;48.872;9.226;2023-05-01T15:33:37;20.80;66.40
360;DHT22;168;48.872;9.226;2023-05-01T15:36:05;20.80;66.20
360;DHT22;168;48.872;9.226;2023-05-01T15:38:32;20.90;67.30
360;DHT22;168;48.872;9.226;2023-05-01T15:41:01;20.90;67.60
360;DHT22;168;48.872;9.226;2023-05-01T15:43:28;21.00;67.30
360;DHT22;168;48.872;9.226;2023-05-01T15:45:56;21.10;68.20
360;DHT22;168;48.872;9.226;2023-05-01T15:48:24;21.30;68.40
360;DHT22;168;48.872;9.226;2023-05-01T15:50:52;21.40;66.90
360;DHT22;168;48.872;9.226;2023-05-01T15:53:19;21.50;66.20
360;DHT22;168;48.872;9.226;2023-05-01T15:55:47;21.60;65.80
360;DHT22;168;48.872;9.226;2023-05-01T15:58:16;21.50;65.60
360;DHT22;168;48.872;9.226;2023-05-01T16:00:44;21.40;65.40
360;DHT22;168;48.872;9.226;2023-05-01T16:03:12;21.30;65.50
360;DHT22;168;48.872;9.226;2023-05-01T16:05:40;21.10;65.60
360;DHT22;168;48.872;9.226;2023-05-01T16:08:09;21.10;66.70
360;DHT22;168;48.872;9.226;2023-05-01T16:10:36;21.10;67.00
360;DHT22;168;48.872;9.226;2023-05-01T16:13:05;21.10;65.90
360;DHT22;168;48.872;9.226;2023-05-01T16:15:35;21.10;66.20
360;DHT22;168;48.872;9.226;2023-05-01T16:18:03;21.10;66.00
360;DHT22;168;48.872;9.226;2023-05-01T16:20:34;21.10;67.00
360;DHT22;168;48.872;9.226;2023-05-01T16:23:05;21.20;66.00
360;DHT22;168;48.872;9.226;2023-05-01T16:25:33;21.20;66.00
360;DHT22;168;48.872;9.226;2023-05-01T16:28:04;21.10;65.70
360;DHT22;168;48.872;9.226;2023-05-01T16:30:32;21.10;66.80
360;DHT22;168;48.872;9.226;2023-05-01T16:33:01;21.00;71.50
360;DHT22;168;48.872;9.226;2023-05-01T16:35:30;20.80;74.30
360;DHT22;168;48.872;9.226;2023-05-01T16:37:58;20.60;75.90
360;DHT22;168;48.872;9.226;2023-05-01T16:40:25;20.30;77.30
360;DHT22;168;48.872;9.226;2023-05-01T16:42:54;20.10;78.90
360;DHT22;168;48.872;9.226;2023-05-01T16:45:25;19.80;80.00
360;DHT22;168;48.872;9.226;2023-05-01T16:47:53;19.40;81.60
360;DHT22;168;48.872;9.226;2023-05-01T16:50:22;18.70;83.20
360;DHT22;168;48.872;9.226;2023-05-01T16:52:50;17.90;84.50